Time;durP1;ratioP1;P1;durP2;ratioP2;P2;SDS_P1;SDS_P2;PMS_P1;PMS_P2;Temp;Humidity;BMP_temperature;BMP_pressure;BME280_temperature;BME280_humidity;BME280_pressure;Samples;Min_cycle;Max_cycle;Signal;HPM_P1;HPM_P2
2023/08/31 00:01:15;;;;;;;9.52;6.20;;;;;;;15.65;100.00;99623.34;5116354;28;20034;-75
2023/08/31 00:03:40;;;;;;;8.32;5.45;;;;;;;15.67;100.00;99626.44;5116852;28;20024;-76
2023/08/31 00:06:14;;;;;;;8.07;5.57;;;;;;;15.69;100.00;99635.31;5099320;28;20106;-74
2023/08/31 00:08:39;;;;;;;8.10;5.28;;;;;;;15.65;100.00;99611.81;5117618;28;20027;-74
2023/08/31 00:11:07;;;;;;;6.95;4.40;;;;;;;15.74;100.00;99622.94;5117290;28;20449;-74
2023/08/31 00:13:33;;;;;;;7.05;5.50;;;;;;;15.76;100.00;99625.28;5117300;28;20069;-74
2023/08/31 00:15:59;;;;;;;10.95;5.32;;;;;;;15.81;100.00;99627.31;5117426;28;20040;-75
2023/08/31 00:18:25;;;;;;;9.07;5.43;;;;;;;15.81;100.00;99630.94;5115903;28;20020;-74
2023/08/31 00:20:53;;;;;;;7.18;5.35;;;;;;;15.79;100.00;99627.84;5117152;28;20092;-75
2023/08/31 00:23:18;;;;;;;7.15;5.22;;;;;;;15.78;100.00;99632.03;5117126;28;20036;-75
2023/08/31 00:25:49;;;;;;;8.00;5.10;;;;;;;15.82;100.00;99631.72;5117300;28;20439;-74
2023/08/31 00:28:18;;;;;;;5.95;4.95;;;;;;;15.80;100.00;99626.53;5117353;28;20027;-75
2023/08/31 00:30:44;;;;;;;10.77;5.82;;;;;;;15.78;100.00;99626.28;5099229;28;20039;-75
2023/08/31 00:33:11;;;;;;;6.43;5.00;;;;;;;15.72;100.00;99616.16;5098819;28;20031;-74
2023/08/31 00:35:37;;;;;;;8.38;5.50;;;;;;;15.66;100.00;99610.50;5098774;28;20032;-75
2023/08/31 00:38:04;;;;;;;7.40;5.15;;;;;;;15.64;100.00;99613.91;5117153;28;20511;-73
2023/08/31 00:40:31;;;;;;;7.80;5.68;;;;;;;15.61;100.00;99612.09;5117021;28;20035;-74
2023/08/31 00:42:57;;;;;;;8.32;5.30;;;;;;;15.59;100.00;99611.91;5117086;28;20032;-75
2023/08/31 00:45:23;;;;;;;9.07;5.40;;;;;;;15.61;100.00;99608.47;5117531;28;20038;-75
2023/08/31 00:47:49;;;;;;;10.07;5.82;;;;;;;15.58;100.00;99606.63;5116311;28;20148;-75
2023/08/31 00:50:16;;;;;;;8.70;4.93;;;;;;;15.55;100.00;99596.22;5115610;28;20031;-74
2023/08/31 00:52:47;;;;;;;7.95;5.43;;;;;;;15.53;100.00;99593.09;5115714;28;20077;-74
2023/08/31 00:55:12;;;;;;;9.80;5.60;;;;;;;15.49;100.00;99599.19;5115330;28;20028;-74
2023/08/31 00:57:38;;;;;;;8.63;5.93;;;;;;;15.50;100.00;99605.72;5116463;28;20522;-75
2023/08/31 01:00:08;;;;;;;9.18;5.63;;;;;;;15.49;100.00;99610.69;5115275;28;20031;-74
2023/08/31 01:03:05;;;;;;;7.97;5.15;;;;;;;15.47;100.00;99612.53;5116184;28;20430;-75
2023/08/31 01:05:34;;;;;;;9.13;5.72;;;;;;;15.44;100.00;99617.31;5115196;28;20085;-73
2023/08/31 01:08:20;;;;;;;10.57;6.38;;;;;;;15.41;100.00;99617.63;5115308;28;20035;-74
2023/08/31 01:10:57;;;;;;;8.63;5.55;;;;;;;15.29;100.00;99614.09;5116199;28;20047;-74
2023/08/31 01:13:32;;;;;;;8.63;5.97;;;;;;;15.18;100.00;99623.66;5116500;28;20047;-74
2023/08/31 01:16:04;;;;;;;9.02;5.93;;;;;;;15.11;100.00;99626.38;5114155;28;20039;-75
2023/08/31 01:18:39;;;;;;;8.65;5.85;;;;;;;15.06;100.00;99619.38;5113710;28;20048;-75
2023/08/31 01:21:30;;;;;;;8.20;5.32;;;;;;;14.93;100.00;99621.31;5096585;28;20044;-74
2023/08/31 01:24:08;;;;;;;10.67;6.40;;;;;;;14.85;100.00;99618.28;5113574;28;20035;-74
2023/08/31 01:26:35;;;;;;;9.05;6.68;;;;;;;14.78;100.00;99613.91;5113586;28;20028;-75
2023/08/31 01:29:01;;;;;;;12.18;6.45;;;;;;;14.76;100.00;99627.28;5115059;28;20024;-74
2023/08/31 01:31:29;;;;;;;8.80;6.22;;;;;;;14.68;100.00;99627.09;5113659;28;20061;-74
2023/08/31 01:33:56;;;;;;;10.18;6.35;;;;;;;14.64;100.00;99628.69;5115504;28;20027;-74
2023/08/31 01:36:47;;;;;;;8.18;5.80;;;;;;;14.59;100.00;99627.44;5115934;28;20028;-74
2023/08/31 01:39:33;;;;;;;9.60;6.55;;;;;;;14.57;100.00;99632.16;5113302;28;20047;-76
2023/08/31 01:42:05;;;;;;;10.73;6.43;;;;;;;14.47;100.00;99623.09;5114384;28;20106;-74
2023/08/31 01:44:37;;;;;;;12.02;6.25;;;;;;;14.48;100.00;99626.75;5113151;28;20040;-75
2023/08/31 01:47:07;;;;;;;7.53;5.93;;;;;;;14.43;100.00;99626.25;5113178;28;20019;-75
2023/08/31 01:49:45;;;;;;;10.95;5.90;;;;;;;14.43;100.00;99629.13;5113194;28;20062;-74
2023/08/31 01:52:10;;;;;;;7.07;5.57;;;;;;;14.43;100.00;99625.47;5115152;28;20106;-74
2023/08/31 01:54:37;;;;;;;12.27;6.03;;;;;;;14.47;100.00;99625.19;5113765;28;20114;-73
2023/08/31 01:57:05;;;;;;;6.78;5.53;;;;;;;14.48;100.00;99624.63;5115349;28;20110;-74
2023/08/31 01:59:32;;;;;;;9.07;6.28;;;;;;;14.50;100.00;99633.50;5114125;28;20040;-74
2023/08/31 02:01:59;;;;;;;9.02;6.07;;;;;;;14.51;100.00;99631.41;5115317;28;20028;-74
2023/08/31 02:04:24;;;;;;;9.20;5.75;;;;;;;14.48;100.00;99630.38;5115468;28;20154;-75
2023/08/31 02:06:52;;;;;;;9.43;5.88;;;;;;;14.50;100.00;99624.09;5114834;28;20067;-73
2023/08/31 02:09:20;;;;;;;10.32;5.40;;;;;;;14.52;100.00;99622.25;5115154;28;20030;-73
2023/08/31 02:11:48;;;;;;;9.75;5.55;;;;;;;14.53;100.00;99629.56;5115135;28;20107;-74
2023/08/31 02:14:14;;;;;;;8.05;5.85;;;;;;;14.55;100.00;99643.41;5115216;28;20034;-75
2023/08/31 02:16:40;;;;;;;6.80;5.47;;;;;;;14.51;100.00;99637.16;5115243;28;20031;-74
2023/08/31 02:19:07;;;;;;;11.20;6.05;;;;;;;14.53;100.00;99648.94;5113565;28;20046;-74
2023/08/31 02:21:33;;;;;;;9.63;6.30;;;;;;;14.51;100.00;99646.56;5114931;28;20032;-74
2023/08/31 02:24:01;;;;;;;7.22;5.43;;;;;;;14.55;100.00;99647.06;5114711;28;20040;-74
2023/08/31 02:26:27;;;;;;;9.32;5.90;;;;;;;14.50;100.00;99636.38;5096527;28;20027;-74
2023/08/31 02:28:55;;;;;;;7.22;5.57;;;;;;;14.51;100.00;99637.16;5113730;28;20458;-74
2023/08/31 02:31:21;;;;;;;9.02;6.28;;;;;;;14.54;100.00;99634.00;5113610;28;20377;-74
2023/08/31 02:33:47;;;;;;;10.95;5.78;;;;;;;14.53;100.00;99640.31;5114806;27;20487;-74
2023/08/31 02:36:13;;;;;;;10.32;5.82;;;;;;;14.51;100.00;99646.56;5114629;28;20473;-74
2023/08/31 02:38:39;;;;;;;10.27;6.55;;;;;;;14.48;100.00;99639.00;5114297;28;20122;-75
2023/08/31 02:41:05;;;;;;;8.05;5.82;;;;;;;14.45;100.00;99645.84;5114672;28;20483;-73
2023/08/31 02:43:31;;;;;;;9.65;6.15;;;;;;;14.46;100.00;99649.50;5130044;27;20461;-75
2023/08/31 02:46:01;;;;;;;9.50;5.35;;;;;;;14.42;100.00;99647.72;5114579;28;20035;-74
2023/08/31 02:48:27;;;;;;;9.35;5.60;;;;;;;14.38;100.00;99643.53;5096391;28;20032;-74
2023/08/31 02:50:57;;;;;;;10.23;5.72;;;;;;;14.37;100.00;99642.00;5113237;28;20031;-74
2023/08/31 02:53:24;;;;;;;10.23;5.75;;;;;;;14.37;100.00;99644.88;5114287;28;20059;-73
2023/08/31 02:55:51;;;;;;;9.35;5.93;;;;;;;14.35;100.00;99633.91;5114524;28;20046;-72
2023/08/31 02:58:19;;;;;;;11.65;5.28;;;;;;;14.38;100.00;99649.28;5095971;28;20028;-73
2023/08/31 03:00:47;;;;;;;12.57;6.03;;;;;;;14.37;100.00;99651.41;5113040;28;20043;-73
2023/08/31 03:03:16;;;;;;;8.35;5.50;;;;;;;14.36;100.00;99641.22;5096295;28;20028;-73
2023/08/31 03:05:43;;;;;;;9.52;6.20;;;;;;;14.34;100.00;99640.97;5096634;28;20040;-73
2023/08/31 03:08:10;;;;;;;7.93;5.78;;;;;;;14.36;100.00;99640.44;5113251;28;20019;-72
2023/08/31 03:10:37;;;;;;;9.25;6.10;;;;;;;14.33;100.00;99639.41;5079108;28;20040;-74
2023/08/31 03:13:02;;;;;;;10.35;5.40;;;;;;;14.29;100.00;99638.91;5114071;28;20495;-74
2023/08/31 03:15:29;;;;;;;9.05;6.40;;;;;;;14.21;100.00;99631.41;5113088;28;20032;-72
2023/08/31 03:17:57;;;;;;;9.43;5.93;;;;;;;14.12;100.00;99632.53;5112824;28;20074;-72
2023/08/31 03:20:23;;;;;;;11.15;6.30;;;;;;;14.08;100.00;99637.78;5112589;28;20126;-74
2023/08/31 03:22:49;;;;;;;9.63;6.35;;;;;;;14.08;100.00;99648.50;5114186;28;20106;-73
2023/08/31 03:25:15;;;;;;;11.25;5.63;;;;;;;14.07;100.00;99652.69;5114249;28;20114;-73
2023/08/31 03:27:41;;;;;;;11.77;6.63;;;;;;;14.06;100.00;99651.91;5114150;28;20106;-72
2023/08/31 03:30:08;;;;;;;10.18;6.50;;;;;;;14.05;100.00;99647.47;5113938;28;20028;-74
2023/08/31 03:32:36;;;;;;;10.52;6.53;;;;;;;14.06;100.00;99648.25;5113871;28;20031;-74
2023/08/31 03:35:03;;;;;;;11.98;6.43;;;;;;;14.02;100.00;99642.81;5114118;28;20031;-73
2023/08/31 03:37:30;;;;;;;11.30;6.78;;;;;;;14.04;100.00;99648.78;5113557;28;20056;-73
2023/08/31 03:39:56;;;;;;;11.40;7.13;;;;;;;14.05;100.00;99643.81;5113931;28;20023;-73
2023/08/31 03:42:22;;;;;;;10.57;6.53;;;;;;;14.09;100.00;99639.34;5112547;28;20031;-74
2023/08/31 03:44:49;;;;;;;12.02;7.40;;;;;;;14.13;100.00;99651.34;5114171;28;20376;-73
2023/08/31 03:47:15;;;;;;;11.27;6.38;;;;;;;14.17;100.00;99653.91;5113965;28;20024;-73
2023/08/31 03:49:41;;;;;;;11.15;6.32;;;;;;;14.15;100.00;99648.69;5114246;28;20046;-73
2023/08/31 03:52:07;;;;;;;7.97;6.40;;;;;;;14.14;100.00;99638.50;5095531;28;20483;-74
2023/08/31 03:54:34;;;;;;;9.40;7.05;;;;;;;14.13;100.00;99636.19;5113774;28;20024;-74
2023/08/31 03:57:02;;;;;;;11.98;7.38;;;;;;;14.02;100.00;99627.66;5113982;28;20030;-73
2023/08/31 03:59:27;;;;;;;8.98;6.50;;;;;;;14.04;100.00;99637.28;5114225;28;20023;-73
2023/08/31 04:01:54;;;;;;;8.88;6.35;;;;;;;13.99;100.00;99640.97;5112538;28;20027;-73
2023/08/31 04:04:20;;;;;;;10.43;7.00;;;;;;;14.01;100.00;99638.34;5113359;28;20015;-72
2023/08/31 04:06:46;;;;;;;10.45;7.15;;;;;;;14.01;100.00;99643.31;5114079;28;20020;-73
2023/08/31 04:09:12;;;;;;;12.43;7.15;;;;;;;13.99;100.00;99640.97;5113444;28;20429;-74
2023/08/31 04:11:38;;;;;;;12.02;7.82;;;;;;;14.01;100.00;99649.06;5112284;28;20558;-74
2023/08/31 04:14:05;;;;;;;11.15;7.60;;;;;;;14.07;100.00;99641.19;5113439;28;20106;-72
2023/08/31 04:16:32;;;;;;;13.40;8.00;;;;;;;14.08;100.00;99645.63;5113450;28;20356;-73
2023/08/31 04:18:58;;;;;;;10.82;8.68;;;;;;;14.08;100.00;99649.28;5112740;28;20024;-72
2023/08/31 04:21:26;;;;;;;12.82;8.43;;;;;;;14.15;100.00;99640.06;5111290;28;20035;-73
2023/08/31 04:23:51;;;;;;;12.27;7.68;;;;;;;14.10;100.00;99631.50;5113391;28;20460;-74
2023/08/31 04:26:18;;;;;;;13.45;9.10;;;;;;;14.12;100.00;99641.16;5113022;28;20020;-74
2023/08/31 04:28:44;;;;;;;12.27;7.72;;;;;;;14.21;100.00;99646.56;5094796;28;20504;-74
2023/08/31 04:31:11;;;;;;;11.85;8.25;;;;;;;14.23;100.00;99651.78;5116554;28;20054;-72
2023/08/31 04:33:38;;;;;;;8.55;7.40;;;;;;;14.27;100.00;99647.31;5115920;28;20388;-73
2023/08/31 04:36:05;;;;;;;8.63;6.80;;;;;;;14.33;100.00;99648.03;5115685;28;20028;-73
2023/08/31 04:38:31;;;;;;;11.55;8.25;;;;;;;14.37;100.00;99644.88;5115156;28;20412;-73
2023/08/31 04:41:09;;;;;;;10.30;8.25;;;;;;;14.39;100.00;99640.13;5115589;28;20035;-74
2023/08/31 04:43:34;;;;;;;13.63;9.13;;;;;;;14.43;100.00;99634.88;5116979;27;20357;-74
2023/08/31 04:45:59;;;;;;;11.23;7.75;;;;;;;14.45;100.00;99631.47;5098393;28;20475;-73
2023/08/31 04:48:25;;;;;;;14.63;8.23;;;;;;;14.55;100.00;99646.28;5115348;28;20036;-73
2023/08/31 04:50:56;;;;;;;9.95;7.75;;;;;;;14.63;100.00;99635.75;5116569;28;20098;-73
2023/08/31 04:53:23;;;;;;;11.20;7.82;;;;;;;14.67;100.00;99633.41;5115379;28;20028;-74
2023/08/31 04:55:50;;;;;;;10.88;7.90;;;;;;;14.74;100.00;99639.31;5116435;27;20063;-73
2023/08/31 04:58:17;;;;;;;10.55;8.15;;;;;;;14.78;100.00;99634.03;5116447;28;20024;-73
2023/08/31 05:00:44;;;;;;;10.48;8.20;;;;;;;14.95;100.00;99638.84;5116387;28;20027;-74
2023/08/31 05:03:16;;;;;;;15.63;7.47;;;;;;;15.14;100.00;99642.53;5116758;28;20027;-72
2023/08/31 05:05:44;;;;;;;13.75;7.70;;;;;;;15.27;100.00;99652.06;5115293;28;20027;-73
2023/08/31 05:08:12;;;;;;;9.88;6.85;;;;;;;15.44;100.00;99656.84;5116439;28;20034;-75
2023/08/31 05:10:39;;;;;;;12.65;7.50;;;;;;;15.59;100.00;99652.22;5116252;28;20043;-75
2023/08/31 05:13:05;;;;;;;19.08;10.07;;;;;;;15.75;100.00;99647.56;5116654;27;20096;-76
2023/08/31 05:15:30;;;;;;;8.98;7.68;;;;;;;15.93;100.00;99651.75;5116486;28;20046;-76
2023/08/31 05:18:04;;;;;;;13.63;8.10;;;;;;;16.08;100.00;99652.81;5114539;28;20110;-73
2023/08/31 05:20:30;;;;;;;11.43;7.35;;;;;;;16.11;100.00;99648.84;5116403;28;20050;-77
2023/08/31 05:22:57;;;;;;;11.38;7.47;;;;;;;16.16;100.00;99650.06;5115048;28;20456;-77
2023/08/31 05:25:22;;;;;;;10.70;7.32;;;;;;;16.24;100.00;99661.75;5097633;28;20476;-78
2023/08/31 05:27:48;;;;;;;8.57;7.35;;;;;;;16.38;100.00;99667.03;5115248;28;20038;-78
2023/08/31 05:30:14;;;;;;;8.93;6.68;;;;;;;16.56;100.00;99674.09;5097398;28;20472;-80
2023/08/31 05:32:39;;;;;;;7.60;6.65;;;;;;;16.70;100.00;99675.66;5114657;28;20045;-78
2023/08/31 05:35:07;;;;;;;8.27;6.93;;;;;;;16.80;100.00;99667.38;5114554;28;20381;-78
2023/08/31 05:37:35;;;;;;;8.32;6.75;;;;;;;16.83;100.00;99657.63;5115543;28;20130;-79
2023/08/31 05:40:06;;;;;;;8.40;7.00;;;;;;;17.04;100.00;99672.97;5114844;28;20385;-81
2023/08/31 05:42:33;;;;;;;15.95;7.28;;;;;;;17.15;100.00;99669.06;5115426;28;20028;-80
2023/08/31 05:44:58;;;;;;;9.88;6.45;;;;;;;17.20;100.00;99674.75;5114618;28;20132;-79
2023/08/31 05:47:24;;;;;;;8.90;6.72;;;;;;;17.26;100.00;99669.66;5114875;27;20048;-78
2023/08/31 05:49:58;;;;;;;9.65;6.72;;;;;;;17.31;100.00;99677.41;5114195;28;20032;-79
2023/08/31 05:52:23;;;;;;;11.25;7.10;;;;;;;17.36;100.00;99676.53;5112460;28;20022;-80
2023/08/31 05:54:50;;;;;;;9.52;6.43;;;;;;;17.36;100.00;99679.41;5113765;28;20369;-78
2023/08/31 05:57:19;;;;;;;8.40;6.10;;;;;;;17.44;100.00;99681.66;5114026;28;20043;-79
2023/08/31 06:00:09;;;;;;;7.78;6.40;;;;;;;17.59;100.00;99682.66;5112739;28;20035;-79
2023/08/31 06:02:35;;;;;;;8.15;6.63;;;;;;;17.69;100.00;99692.41;5113947;28;20626;-79
2023/08/31 06:05:02;;;;;;;9.00;6.40;;;;;;;17.69;100.00;99691.63;5114051;28;20038;-79
2023/08/31 06:07:29;;;;;;;9.15;6.40;;;;;;;17.67;100.00;99691.44;5114830;28;20094;-75
2023/08/31 06:09:56;;;;;;;10.18;6.85;;;;;;;17.71;100.00;99686.09;5115112;28;20031;-79
2023/08/31 06:12:22;;;;;;;10.98;7.30;;;;;;;17.75;100.00;99687.31;5113828;28;20055;-78
2023/08/31 06:14:48;;;;;;;8.50;6.85;;;;;;;17.79;100.00;99692.72;5114447;28;20051;-80
2023/08/31 06:17:15;;;;;;;7.85;6.85;;;;;;;17.76;100.00;99688.84;5115077;28;20483;-78
2023/08/31 06:19:42;;;;;;;9.35;6.72;;;;;;;17.72;100.00;99670.31;5115474;28;20032;-78
2023/08/31 06:22:08;;;;;;;7.57;6.00;;;;;;;17.88;100.00;99679.94;5113606;28;20024;-79
2023/08/31 06:24:34;;;;;;;10.63;6.55;;;;;;;17.83;100.00;99688.16;5117213;28;20122;-77
2023/08/31 06:27:00;;;;;;;8.02;6.93;;;;;;;18.01;100.00;99688.59;5113752;28;20041;-78
2023/08/31 06:29:28;;;;;;;6.97;6.03;;;;;;;18.13;100.00;99695.66;5114954;28;20042;-79
2023/08/31 06:31:54;;;;;;;7.05;5.10;;;;;;;18.64;100.00;99682.34;5114852;28;20072;-80
2023/08/31 06:34:20;;;;;;;7.80;5.35;;;;;;;19.33;100.00;99692.38;5115383;28;20074;-78
2023/08/31 06:36:47;;;;;;;6.38;5.40;;;;;;;20.25;100.00;99687.81;5115225;28;20057;-78
2023/08/31 06:39:15;;;;;;;7.75;5.53;;;;;;;20.81;100.00;99678.84;5115228;28;20058;-80
2023/08/31 06:41:41;;;;;;;7.45;5.45;;;;;;;21.25;100.00;99688.09;5115419;28;20020;-81
2023/08/31 06:44:06;;;;;;;7.85;5.22;;;;;;;21.57;100.00;99678.78;5113282;28;20034;-80
2023/08/31 06:46:37;;;;;;;10.35;4.90;;;;;;;21.88;100.00;99667.06;5113035;28;20024;-76
2023/08/31 06:49:06;;;;;;;;;;;;;;;22.50;100.00;99681.47;5114065;28;20031;-77
2023/08/31 06:51:40;;;;;;;6.28;4.82;;;;;;;23.26;100.00;99669.22;5113027;28;19977;-77
2023/08/31 06:54:27;;;;;;;9.13;5.22;;;;;;;24.08;100.00;99668.91;5111754;28;20039;-75
2023/08/31 06:56:53;;;;;;;6.72;4.38;;;;;;;24.61;100.00;99668.16;5112934;28;20153;-77
2023/08/31 06:59:19;;;;;;;7.15;4.95;;;;;;;25.25;100.00;99663.03;5111729;28;20122;-77
2023/08/31 07:01:45;;;;;;;5.43;4.60;;;;;;;25.74;100.00;99667.56;5112944;28;20063;-77
2023/08/31 07:04:11;;;;;;;9.00;4.93;;;;;;;25.98;100.00;99679.59;5112501;28;20039;-76
2023/08/31 07:06:37;;;;;;;5.43;4.28;;;;;;;26.40;100.00;99676.94;5113402;28;20521;-78
2023/08/31 07:09:08;;;;;;;11.63;5.00;;;;;;;27.05;100.00;99664.84;5113070;28;20072;-77
2023/08/31 07:11:34;;;;;;;6.40;4.43;;;;;;;27.58;100.00;99677.38;5113900;28;20035;-76
2023/08/31 07:14:01;;;;;;;4.45;4.05;;;;;;;28.07;100.00;99686.56;5096240;28;20409;-77
2023/08/31 07:16:26;;;;;;;6.20;4.63;;;;;;;28.41;100.00;99677.09;5115407;28;20027;-78
2023/08/31 07:18:53;;;;;;;7.25;4.50;;;;;;;28.88;100.00;99678.75;5114163;28;20472;-77
2023/08/31 07:21:19;;;;;;;5.22;4.50;;;;;;;29.37;100.00;99684.78;5112662;28;20067;-76
2023/08/31 07:23:45;;;;;;;9.48;4.70;;;;;;;29.53;100.00;99687.94;5114280;28;20031;-76
2023/08/31 07:26:11;;;;;;;8.57;4.43;;;;;;;29.56;97.84;99681.59;5112837;28;20036;-78
2023/08/31 07:28:45;;;;;;;6.72;4.57;;;;;;;28.82;98.23;99681.31;5114518;28;20062;-75
2023/08/31 07:31:12;;;;;;;4.90;4.47;;;;;;;28.20;100.00;99685.97;5112978;28;20054;-77
2023/08/31 07:33:39;;;;;;;7.88;4.18;;;;;;;28.06;100.00;99687.97;5112665;28;20032;-76
2023/08/31 07:36:06;;;;;;;7.68;4.68;;;;;;;28.32;100.00;99689.75;5113926;28;20051;-76
2023/08/31 07:38:32;;;;;;;8.18;5.30;;;;;;;28.86;100.00;99690.38;5113710;28;20177;-77
2023/08/31 07:40:59;;;;;;;6.82;5.10;;;;;;;28.18;98.70;99706.44;5112466;28;20035;-76
2023/08/31 07:43:25;;;;;;;9.60;4.95;;;;;;;28.18;100.00;99712.31;5113936;28;20477;-76
2023/08/31 07:45:52;;;;;;;6.10;5.50;;;;;;;28.10;100.00;99720.56;5112689;28;20101;-77
2023/08/31 07:48:18;;;;;;;11.95;5.63;;;;;;;27.47;100.00;99727.94;5112414;28;20071;-76
2023/08/31 07:50:45;;;;;;;8.43;5.82;;;;;;;26.87;100.00;99716.31;5112611;28;20034;-75
2023/08/31 07:53:11;;;;;;;7.43;5.28;;;;;;;26.03;100.00;99719.50;5112241;28;20391;-77
2023/08/31 07:55:52;;;;;;;7.45;4.68;;;;;;;24.96;100.00;99724.34;5112443;28;20032;-76
2023/08/31 07:58:17;;;;;;;7.95;5.25;;;;;;;24.60;100.00;99716.28;5113450;28;20030;-75
2023/08/31 08:00:45;;;;;;;7.75;5.70;;;;;;;24.48;100.00;99726.22;5113330;28;20040;-77
2023/08/31 08:03:11;;;;;;;6.85;5.80;;;;;;;24.34;100.00;99733.81;5113534;28;20023;-76
2023/08/31 08:05:39;;;;;;;11.73;6.18;;;;;;;23.76;100.00;99739.91;5116096;28;20051;-75
2023/08/31 08:08:05;;;;;;;10.20;5.40;;;;;;;23.34;100.00;99742.84;5117939;28;20043;-77
2023/08/31 08:10:39;;;;;;;8.40;5.90;;;;;;;23.38;100.00;99737.34;5117585;27;20051;-77
2023/08/31 08:13:05;;;;;;;10.18;6.07;;;;;;;23.56;100.00;99740.31;5117664;28;20024;-77
2023/08/31 08:15:31;;;;;;;7.18;6.18;;;;;;;23.77;100.00;99741.47;5117341;28;20031;-75
2023/08/31 08:17:57;;;;;;;7.72;6.40;;;;;;;23.82;100.00;99741.81;5117286;28;20015;-76
2023/08/31 08:20:24;;;;;;;10.73;6.03;;;;;;;23.70;100.00;99735.72;5115947;28;20039;-77
2023/08/31 08:22:53;;;;;;;7.88;5.68;;;;;;;23.57;100.00;99736.81;5116201;28;20622;-77
2023/08/31 08:25:20;;;;;;;5.15;4.63;;;;;;;23.37;100.00;99729.97;5116326;28;20027;-77
2023/08/31 08:27:47;;;;;;;6.32;5.40;;;;;;;23.48;100.00;99739.59;5116988;28;20106;-76
2023/08/31 08:30:15;;;;;;;6.85;5.53;;;;;;;23.47;100.00;99735.91;5115988;28;20036;-77
2023/08/31 08:32:42;;;;;;;5.63;5.10;;;;;;;23.78;100.00;99734.25;5115614;28;20106;-76
2023/08/31 08:35:08;;;;;;;6.05;4.55;;;;;;;24.40;100.00;99743.84;5117267;28;20023;-76
2023/08/31 08:37:35;;;;;;;5.97;4.65;;;;;;;24.54;100.00;99753.03;5115709;28;20054;-77
2023/08/31 08:40:03;;;;;;;6.28;5.22;;;;;;;24.55;100.00;99760.38;5117007;28;20016;-76
2023/08/31 08:42:32;;;;;;;5.97;5.18;;;;;;;23.94;100.00;99760.34;5116694;28;20027;-76
2023/08/31 08:44:59;;;;;;;6.15;5.43;;;;;;;23.16;100.00;99764.53;5115529;28;20016;-77
2023/08/31 08:47:27;;;;;;;5.68;4.93;;;;;;;22.59;100.00;99746.28;5115655;28;20034;-77
2023/08/31 08:49:54;;;;;;;6.22;5.60;;;;;;;22.24;100.00;99769.34;5116856;28;20024;-76
2023/08/31 08:52:20;;;;;;;6.50;5.90;;;;;;;21.94;100.00;99775.25;5115277;28;20032;-75
2023/08/31 08:54:48;;;;;;;9.10;6.05;;;;;;;21.74;100.00;99776.25;5116467;28;20035;-76
2023/08/31 08:57:13;;;;;;;6.50;5.80;;;;;;;21.66;100.00;99779.97;5098369;28;20038;-76
2023/08/31 08:59:39;;;;;;;6.28;5.32;;;;;;;21.57;100.00;99785.59;5116956;28;20036;-76
2023/08/31 09:02:09;;;;;;;7.20;5.82;;;;;;;21.15;100.00;99794.69;5115148;28;20039;-76
2023/08/31 09:04:36;;;;;;;7.13;5.20;;;;;;;20.69;100.00;99798.84;5098338;28;20027;-76
2023/08/31 09:07:02;;;;;;;7.47;4.40;;;;;;;20.22;100.00;99805.03;5115360;28;20031;-77
2023/08/31 09:09:30;;;;;;;4.72;4.22;;;;;;;20.11;100.00;99803.22;5116589;28;20019;-77
2023/08/31 09:12:13;;;;;;;4.18;3.47;;;;;;;19.77;100.00;99814.22;5116579;28;20031;-78
2023/08/31 09:14:38;;;;;;;6.13;3.70;;;;;;;19.67;100.00;99816.84;5115882;28;20028;-77
2023/08/31 09:17:04;;;;;;;3.15;2.85;;;;;;;19.40;100.00;99824.19;5113536;28;20019;-75
2023/08/31 09:19:29;;;;;;;3.53;2.58;;;;;;;18.95;100.00;99822.38;5116502;28;20422;-72
2023/08/31 09:21:56;;;;;;;2.35;2.15;;;;;;;18.73;100.00;99830.81;5115852;28;20396;-73
2023/08/31 09:24:23;;;;;;;4.22;2.45;;;;;;;18.54;100.00;99830.97;5114536;28;20081;-74
2023/08/31 09:26:58;;;;;;;1.75;1.65;;;;;;;18.57;100.00;99839.31;5114678;28;20028;-74
2023/08/31 09:29:44;;;;;;;2.42;2.03;;;;;;;18.55;100.00;99847.00;5114736;28;20030;-75
2023/08/31 09:32:15;;;;;;;4.07;2.17;;;;;;;18.53;100.00;99856.25;5116366;28;20099;-74
2023/08/31 09:34:41;;;;;;;2.22;1.88;;;;;;;18.46;100.00;99859.84;5097517;28;20031;-75
2023/08/31 09:37:09;;;;;;;6.32;2.15;;;;;;;18.33;100.00;99864.84;5114774;28;20027;-76
2023/08/31 09:39:39;;;;;;;5.45;2.50;;;;;;;18.14;100.00;99871.50;5115658;28;20087;-75
2023/08/31 09:42:05;;;;;;;4.25;2.33;;;;;;;18.06;100.00;99869.84;5115357;28;20026;-74
2023/08/31 09:44:31;;;;;;;4.10;2.50;;;;;;;18.04;100.00;99875.41;5114376;28;20019;-74
2023/08/31 09:46:57;;;;;;;2.83;2.40;;;;;;;17.94;100.00;99883.75;5115600;28;20376;-75
2023/08/31 09:49:24;;;;;;;3.17;2.03;;;;;;;17.60;100.00;99857.59;5115452;28;20448;-73
2023/08/31 09:51:50;;;;;;;5.90;2.90;;;;;;;17.65;100.00;99890.59;5115085;28;20051;-74
2023/08/31 09:54:18;;;;;;;5.38;2.90;;;;;;;17.56;100.00;99891.03;5097474;28;20035;-75
2023/08/31 09:56:45;;;;;;;4.57;2.45;;;;;;;17.42;100.00;99901.75;5097552;28;20036;-76
2023/08/31 09:59:12;;;;;;;3.50;2.67;;;;;;;16.96;100.00;99892.22;5092849;28;20024;-78
2023/08/31 10:01:38;;;;;;;7.70;2.80;;;;;;;17.12;100.00;99910.63;5092686;28;20388;-77
2023/08/31 10:04:05;;;;;;;4.72;3.45;;;;;;;17.05;100.00;99914.13;5094393;28;20020;-78
2023/08/31 10:06:31;;;;;;;4.07;2.78;;;;;;;16.94;100.00;99894.13;5092391;28;20036;-76
2023/08/31 10:08:57;;;;;;;4.43;3.40;;;;;;;17.19;100.00;99923.66;5076270;28;20031;-75
2023/08/31 10:11:25;;;;;;;5.60;2.88;;;;;;;17.35;100.00;99923.38;5093726;28;20038;-76
2023/08/31 10:13:51;;;;;;;3.50;3.17;;;;;;;17.43;100.00;99923.53;5094226;28;20020;-76
2023/08/31 10:16:19;;;;;;;5.05;2.95;;;;;;;17.62;100.00;99929.28;5075680;28;20381;-76
2023/08/31 10:18:44;;;;;;;5.57;3.00;;;;;;;17.70;100.00;99933.84;5092540;28;20220;-76
2023/08/31 10:21:10;;;;;;;3.83;3.30;;;;;;;17.76;100.00;99931.66;5110012;27;20070;-76
2023/08/31 10:23:35;;;;;;;4.18;3.25;;;;;;;17.92;100.00;99943.47;5114564;27;20023;-76
2023/08/31 10:26:03;;;;;;;3.72;3.13;;;;;;;17.89;100.00;99935.88;5114148;28;20031;-77
2023/08/31 10:28:29;;;;;;;6.05;3.20;;;;;;;17.95;100.00;99931.56;5113977;28;20026;-78
2023/08/31 10:31:05;;;;;;;5.97;3.28;;;;;;;17.90;100.00;99926.66;5114471;28;20345;-79
2023/08/31 10:33:35;;;;;;;5.13;3.40;;;;;;;17.93;100.00;99934.22;5113880;28;20028;-78
2023/08/31 10:36:01;;;;;;;3.50;3.20;;;;;;;17.91;100.00;99930.34;5112276;28;20036;-77
2023/08/31 10:38:30;;;;;;;4.30;3.13;;;;;;;17.95;100.00;99927.88;5113876;28;20065;-77
2023/08/31 10:41:05;;;;;;;3.85;3.38;;;;;;;17.93;100.00;99933.47;5112390;28;20042;-78
2023/08/31 10:43:45;;;;;;;3.63;3.20;;;;;;;17.95;100.00;99940.25;5114078;28;20028;-77
2023/08/31 10:46:27;;;;;;;3.92;2.83;;;;;;;17.93;100.00;99927.69;5113883;27;20400;-75
2023/08/31 10:49:00;;;;;;;3.05;2.70;;;;;;;18.06;100.00;99928.47;5111672;28;20031;-76
2023/08/31 10:51:28;;;;;;;5.63;3.05;;;;;;;18.32;100.00;99924.84;5113111;27;20153;-77
2023/08/31 10:54:13;;;;;;;3.13;2.80;;;;;;;18.78;100.00;99911.75;5112554;28;20033;-77
2023/08/31 10:57:00;;;;;;;3.50;2.35;;;;;;;19.18;100.00;99912.44;5096273;28;20384;-76
2023/08/31 10:59:41;;;;;;;4.35;2.45;;;;;;;19.55;100.00;99919.97;5113602;28;20365;-78
2023/08/31 11:02:07;;;;;;;2.33;2.13;;;;;;;19.84;100.00;99909.97;5095573;28;20040;-77
2023/08/31 11:05:10;;;;;;;3.33;2.28;;;;;;;20.22;100.00;99886.28;5110142;28;20382;-78
2023/08/31 11:07:37;;;;;;;4.45;2.70;;;;;;;20.47;100.00;99898.22;5108851;28;20036;-79
2023/08/31 11:10:11;;;;;;;7.93;3.33;;;;;;;20.55;100.00;99908.53;5108383;28;20020;-78
2023/08/31 11:12:39;;;;;;;6.07;2.80;;;;;;;20.48;100.00;99909.28;5112531;27;20398;-81
2023/08/31 11:15:05;;;;;;;5.82;2.35;;;;;;;20.49;100.00;99901.34;5111813;28;20118;-78
2023/08/31 11:17:34;;;;;;;4.95;1.90;;;;;;;20.47;100.00;99893.19;5113075;27;20175;-79
2023/08/31 11:20:00;;;;;;;4.05;2.10;;;;;;;20.57;100.00;99885.50;5111847;28;20028;-76
2023/08/31 11:22:27;;;;;;;4.50;2.45;;;;;;;20.87;100.00;99901.53;5111670;28;20044;-77
2023/08/31 11:24:53;;;;;;;3.95;2.33;;;;;;;21.02;100.00;99890.75;5112779;28;20531;-79
2023/08/31 11:27:21;;;;;;;4.15;2.50;;;;;;;21.19;100.00;99882.25;5111249;28;20106;-79
2023/08/31 11:29:47;;;;;;;13.55;2.45;;;;;;;21.36;100.00;99881.72;5092623;28;20051;-79